createdAt,value
2018-12-29T00:02:13.173Z,102217.08
2018-12-29T00:04:41.859Z,102215.41
2018-12-29T00:07:10.545Z,102217.27
2018-12-29T00:09:39.333Z,102223.28
2018-12-29T00:12:08.019Z,102227.62
2018-12-29T00:14:36.808Z,102232.39
2018-12-29T00:17:05.494Z,102230.56
2018-12-29T00:19:34.281Z,102233.00
2018-12-29T00:22:02.971Z,102227.47
2018-12-29T00:24:31.759Z,102231.92
2018-12-29T00:27:00.442Z,102236.16
2018-12-29T00:29:29.229Z,102230.25
2018-12-29T00:31:57.914Z,102227.78
2018-12-29T00:34:26.600Z,102227.39
2018-12-29T00:36:55.390Z,102225.14
2018-12-29T00:39:24.077Z,102223.31
2018-12-29T00:41:52.966Z,102223.78
2018-12-29T00:44:21.753Z,102222.09
2018-12-29T00:46:50.543Z,102221.78
2018-12-29T00:49:19.331Z,102225.80
2018-12-29T00:51:48.118Z,102220.55
2018-12-29T00:54:16.905Z,102229.03
2018-12-29T00:56:45.695Z,102235.32
2018-12-29T00:59:14.483Z,102232.07
2018-12-29T01:01:43.271Z,102223.62
2018-12-29T01:04:12.162Z,102229.81
2018-12-29T01:06:40.745Z,102233.58
2018-12-29T01:09:09.533Z,102231.17
2018-12-29T01:11:38.427Z,102238.64
2018-12-29T01:14:07.211Z,102244.36
2018-12-29T01:16:36.001Z,102237.45
2018-12-29T01:19:04.789Z,102240.80
2018-12-29T01:21:33.576Z,102247.00
2018-12-29T01:24:02.262Z,102238.77
2018-12-29T01:26:31.051Z,102244.27
2018-12-29T01:28:59.748Z,102247.83
2018-12-29T01:31:28.524Z,102244.05
2018-12-29T01:33:57.212Z,102247.83
2018-12-29T01:36:26.001Z,102250.93
2018-12-29T01:38:54.788Z,102238.28
2018-12-29T01:41:23.575Z,102251.47
2018-12-29T01:43:52.363Z,102248.45
2018-12-29T01:46:21.153Z,102237.78
2018-12-29T01:48:49.939Z,102229.07
2018-12-29T01:51:18.727Z,102227.61
2018-12-29T01:53:48.336Z,102223.37
2018-12-29T01:56:17.329Z,102223.53
2018-12-29T01:58:46.012Z,102228.75
2018-12-29T02:01:14.800Z,102230.27
2018-12-29T02:03:43.590Z,102225.56
2018-12-29T02:06:12.275Z,102221.48
2018-12-29T02:08:41.062Z,102222.02
2018-12-29T02:11:09.750Z,102224.22
2018-12-29T02:13:38.536Z,102219.83
2018-12-29T02:16:07.325Z,102220.72
2018-12-29T02:18:36.113Z,102214.00
2018-12-29T02:21:04.902Z,102226.87
2018-12-29T02:23:33.690Z,102220.20
2018-12-29T02:26:02.479Z,102220.82
2018-12-29T02:28:31.270Z,102217.78
2018-12-29T02:30:59.950Z,102213.31
2018-12-29T02:33:28.943Z,102210.83
2018-12-29T02:35:57.636Z,102210.97
2018-12-29T02:38:26.419Z,102219.69
2018-12-29T02:40:55.214Z,102217.93
2018-12-29T02:43:23.993Z,102214.89
2018-12-29T02:45:52.783Z,102219.98
2018-12-29T02:48:21.570Z,102216.20
2018-12-29T02:50:50.255Z,102209.17
2018-12-29T02:53:19.046Z,102213.84
2018-12-29T02:55:47.731Z,102207.41
2018-12-29T02:58:16.523Z,102202.64
2018-12-29T03:00:45.203Z,102205.45
2018-12-29T03:03:13.991Z,102197.72
2018-12-29T03:05:42.678Z,102203.33
2018-12-29T03:08:11.465Z,102201.96
2018-12-29T03:10:40.255Z,102208.33
2018-12-29T03:13:09.042Z,102207.02
2018-12-29T03:15:41.642Z,102201.00
2018-12-29T03:18:08.258Z,102202.04
2018-12-29T03:20:37.045Z,102201.82
2018-12-29T03:23:05.833Z,102199.69
2018-12-29T03:25:34.620Z,102196.37
2018-12-29T03:28:03.307Z,102196.97
2018-12-29T03:30:32.096Z,102192.35
2018-12-29T03:33:00.885Z,102187.80
2018-12-29T03:35:29.569Z,102186.55
2018-12-29T03:37:58.472Z,102185.47
2018-12-29T03:40:27.145Z,102185.54
2018-12-29T03:42:56.139Z,102186.68
2018-12-29T03:45:24.925Z,102178.81
2018-12-29T03:47:53.816Z,102185.31
2018-12-29T03:50:22.604Z,102192.95
2018-12-29T03:52:51.393Z,102179.97
2018-12-29T03:55:20.183Z,102181.23
2018-12-29T03:57:48.970Z,102179.86
2018-12-29T04:00:17.757Z,102177.45
2018-12-29T04:02:46.443Z,102179.42
2018-12-29T04:05:15.235Z,102174.72
2018-12-29T04:07:43.916Z,102179.59
2018-12-29T04:10:15.158Z,102175.34
2018-12-29T04:12:46.715Z,102182.58
2018-12-29T04:15:15.502Z,102179.42
2018-12-29T04:17:44.293Z,102175.63
2018-12-29T04:20:13.078Z,102174.58
2018-12-29T04:22:41.774Z,102174.56
2018-12-29T04:25:10.554Z,102174.97
2018-12-29T04:27:39.340Z,102181.92
2018-12-29T04:30:08.130Z,102178.44
2018-12-29T04:32:36.917Z,102177.45
2018-12-29T04:35:06.114Z,102172.92
2018-12-29T04:37:34.904Z,102176.39
2018-12-29T04:40:03.794Z,102181.84
2018-12-29T04:42:32.587Z,102177.09
2018-12-29T04:45:01.374Z,102175.04
2018-12-29T04:47:30.056Z,102177.45
2018-12-29T04:49:58.843Z,102173.97
2018-12-29T04:52:27.533Z,102172.63
2018-12-29T04:54:56.319Z,102179.49
2018-12-29T04:57:25.106Z,102182.98
2018-12-29T04:59:53.893Z,102180.69
2018-12-29T05:02:22.580Z,102178.42
2018-12-29T05:04:51.368Z,102180.98
2018-12-29T05:07:20.055Z,102185.70
2018-12-29T05:09:48.844Z,102187.88
2018-12-29T05:12:17.732Z,102185.63
2018-12-29T05:14:46.520Z,102188.80
2018-12-29T05:17:15.308Z,102192.53
2018-12-29T05:19:43.996Z,102191.69
2018-12-29T05:22:12.783Z,102196.35
2018-12-29T05:24:41.671Z,102193.63
2018-12-29T05:27:10.460Z,102199.23
2018-12-29T05:29:39.146Z,102194.47
2018-12-29T05:32:07.934Z,102200.92
2018-12-29T05:34:36.622Z,102194.92
2018-12-29T05:37:05.409Z,102195.16
2018-12-29T05:39:34.096Z,102202.50
2018-12-29T05:42:02.883Z,102204.61
2018-12-29T05:44:31.568Z,102195.46
2018-12-29T05:47:00.360Z,102198.72
2018-12-29T05:49:29.145Z,102190.45
2018-12-29T05:51:57.934Z,102199.08
2018-12-29T05:54:26.722Z,102197.28
2018-12-29T05:56:55.508Z,102200.98
2018-12-29T05:59:24.297Z,102209.92
2018-12-29T06:01:53.086Z,102202.73
2018-12-29T06:04:21.830Z,102201.44
2018-12-29T06:06:50.560Z,102199.09
2018-12-29T06:09:19.347Z,102206.89
2018-12-29T06:11:48.136Z,102205.59
2018-12-29T06:14:16.819Z,102215.44
2018-12-29T06:16:45.610Z,102207.63
2018-12-29T06:19:14.402Z,102215.38
2018-12-29T06:21:43.186Z,102214.91
2018-12-29T06:24:11.869Z,102221.03
2018-12-29T06:26:40.659Z,102210.91
2018-12-29T06:29:09.344Z,102210.30
2018-12-29T06:31:38.032Z,102216.95
2018-12-29T06:34:06.722Z,102217.78
2018-12-29T06:36:35.506Z,102223.02
2018-12-29T06:39:05.830Z,102232.98
2018-12-29T06:41:34.616Z,102244.41
2018-12-29T06:44:03.304Z,102242.30
2018-12-29T06:46:35.169Z,102238.74
2018-12-29T06:49:02.722Z,102227.84
2018-12-29T06:51:31.714Z,102231.94
2018-12-29T06:54:00.400Z,102225.66
2018-12-29T06:56:29.188Z,102225.19
2018-12-29T06:58:57.876Z,102240.41
2018-12-29T07:01:26.662Z,102237.97
2018-12-29T07:03:55.348Z,102226.02
2018-12-29T07:06:24.141Z,102227.23
2018-12-29T07:08:52.923Z,102229.21
2018-12-29T07:11:21.719Z,102225.41
2018-12-29T07:13:50.503Z,102223.45
2018-12-29T07:16:19.289Z,102216.71
2018-12-29T07:18:48.077Z,102214.08
2018-12-29T07:21:16.866Z,102209.53
2018-12-29T07:23:45.904Z,102202.72
2018-12-29T07:26:14.549Z,102209.65
2018-12-29T07:28:43.332Z,102211.11
2018-12-29T07:31:11.913Z,102216.03
2018-12-29T07:33:40.703Z,102217.35
2018-12-29T07:36:09.391Z,102220.05
2018-12-29T07:38:38.176Z,102223.08
2018-12-29T07:41:06.965Z,102225.44
2018-12-29T07:43:35.754Z,102231.31
2018-12-29T07:46:04.542Z,102235.18
2018-12-29T07:48:33.328Z,102230.17
2018-12-29T07:51:02.016Z,102231.00
2018-12-29T07:53:30.802Z,102227.54
2018-12-29T07:55:59.488Z,102219.38
2018-12-29T07:58:28.277Z,102225.03
2018-12-29T08:00:57.063Z,102213.09
2018-12-29T08:03:26.160Z,102218.62
2018-12-29T08:05:54.949Z,102220.27
2018-12-29T08:08:23.633Z,102216.49
2018-12-29T08:10:52.421Z,102218.93
2018-12-29T08:13:21.119Z,102210.12
2018-12-29T08:15:49.895Z,102209.77
2018-12-29T08:18:18.686Z,102206.13
2018-12-29T08:20:47.473Z,102197.86
2018-12-29T08:23:16.259Z,102203.41
2018-12-29T08:25:44.948Z,102213.33
2018-12-29T08:28:13.733Z,102225.28
2018-12-29T08:30:42.522Z,102221.78
2018-12-29T08:33:11.309Z,102223.55
2018-12-29T08:35:40.098Z,102228.84
2018-12-29T08:38:08.887Z,102223.60
2018-12-29T08:40:37.683Z,102222.71
2018-12-29T08:43:06.470Z,102225.28
2018-12-29T08:45:35.250Z,102230.78
2018-12-29T08:48:04.040Z,102222.25
2018-12-29T08:50:32.828Z,102222.77
2018-12-29T08:53:01.722Z,102223.45
2018-12-29T08:55:30.517Z,102222.09
2018-12-29T08:57:59.404Z,102228.75
2018-12-29T09:00:28.081Z,102224.91
2018-12-29T09:02:56.878Z,102220.52
2018-12-29T09:05:25.657Z,102226.57
2018-12-29T09:07:54.445Z,102223.45
2018-12-29T09:10:23.237Z,102226.86
2018-12-29T09:12:52.023Z,102221.66
2018-12-29T09:15:20.812Z,102227.16
2018-12-29T09:17:49.497Z,102224.00
2018-12-29T09:20:18.182Z,102221.58
2018-12-29T09:22:46.971Z,102229.97
2018-12-29T09:25:15.759Z,102228.98
2018-12-29T09:27:44.548Z,102224.38
2018-12-29T09:30:13.543Z,102217.94
2018-12-29T09:32:42.172Z,102223.62
2018-12-29T09:35:10.808Z,102228.83
2018-12-29T09:37:39.596Z,102233.52
2018-12-29T09:40:08.286Z,102233.75
2018-12-29T09:42:37.378Z,102235.86
2018-12-29T09:45:06.379Z,102231.39
2018-12-29T09:47:35.160Z,102235.72
2018-12-29T09:50:04.153Z,102225.67
2018-12-29T09:52:32.941Z,102223.45
2018-12-29T09:55:01.733Z,102231.69
2018-12-29T09:57:30.516Z,102222.63
2018-12-29T09:59:59.203Z,102217.93
2018-12-29T10:02:27.999Z,102197.72
2018-12-29T10:04:56.777Z,102196.37
2018-12-29T10:07:25.567Z,102185.33
2018-12-29T10:09:54.354Z,102187.09
2018-12-29T10:12:23.051Z,102189.87
2018-12-29T10:14:51.692Z,102192.83
2018-12-29T10:17:26.792Z,102171.94
2018-12-29T10:19:50.623Z,102180.84
2018-12-29T10:22:19.253Z,102174.80
2018-12-29T10:24:47.991Z,102161.78
2018-12-29T10:27:16.585Z,102157.83
2018-12-29T10:29:45.242Z,102166.28
2018-12-29T10:32:13.852Z,102159.16
2018-12-29T10:34:42.501Z,102157.00
2018-12-29T10:37:11.104Z,102153.48
2018-12-29T10:39:39.914Z,102157.61
2018-12-29T10:42:08.703Z,102158.58
2018-12-29T10:44:37.490Z,102152.52
2018-12-29T10:47:06.280Z,102155.59
2018-12-29T10:49:35.071Z,102152.52
2018-12-29T10:52:03.772Z,102150.09
2018-12-29T10:54:32.847Z,102144.38
2018-12-29T10:57:01.547Z,102142.14
2018-12-29T10:59:30.429Z,102133.99
2018-12-29T11:02:11.549Z,102128.99
2018-12-29T11:04:42.070Z,102136.46
2018-12-29T11:07:10.748Z,102139.41
2018-12-29T11:09:39.708Z,102131.80
2018-12-29T11:12:09.829Z,102126.39
2018-12-29T11:14:38.614Z,102124.90
2018-12-29T11:17:07.492Z,102125.73
2018-12-29T11:19:38.342Z,102123.80
2018-12-29T11:22:07.129Z,102120.55
2018-12-29T11:24:37.442Z,102116.06
2018-12-29T11:27:06.225Z,102106.12
2018-12-29T11:29:34.858Z,102106.16
2018-12-29T11:32:03.625Z,102095.39
2018-12-29T11:34:35.884Z,102087.96
2018-12-29T11:37:04.577Z,102082.71
2018-12-29T11:39:33.252Z,102078.56
2018-12-29T11:42:01.818Z,102077.86
2018-12-29T11:44:30.507Z,102071.11
2018-12-29T11:46:59.159Z,102071.95
2018-12-29T11:49:27.838Z,102066.53
2018-12-29T11:51:56.408Z,102063.09
2018-12-29T11:54:25.338Z,102053.86
2018-12-29T11:56:54.414Z,102053.97
2018-12-29T11:59:23.085Z,102060.48
2018-12-29T12:01:51.837Z,102050.72
2018-12-29T12:04:20.624Z,102037.06
2018-12-29T12:06:49.411Z,102017.81
2018-12-29T12:09:18.206Z,102019.83
2018-12-29T12:11:46.987Z,102034.52
2018-12-29T12:14:15.776Z,102039.68
2018-12-29T12:16:44.568Z,102046.81
2018-12-29T12:19:13.267Z,102047.03
2018-12-29T12:21:41.837Z,102039.45
2018-12-29T12:24:10.477Z,102039.80
2018-12-29T12:26:39.053Z,102034.27
2018-12-29T12:29:07.708Z,102026.08
2018-12-29T12:31:38.960Z,102017.20
2018-12-29T12:34:07.962Z,102025.02
2018-12-29T12:36:37.122Z,102029.60
2018-12-29T12:39:07.015Z,102034.83
2018-12-29T12:41:36.131Z,102041.12
2018-12-29T12:44:04.818Z,102041.81
2018-12-29T12:46:33.614Z,102034.53
2018-12-29T12:49:02.535Z,102028.54
2018-12-29T12:51:31.208Z,102038.81
2018-12-29T12:53:59.861Z,102029.19
2018-12-29T12:56:28.462Z,102030.20
2018-12-29T12:58:57.243Z,102030.36
2018-12-29T13:01:26.333Z,102030.32
2018-12-29T13:03:55.158Z,102035.21
2018-12-29T13:06:23.976Z,102025.31
2018-12-29T13:08:52.800Z,102020.63
2018-12-29T13:11:21.589Z,102022.47
2018-12-29T13:13:50.376Z,102019.86
2018-12-29T13:16:19.064Z,102012.69
2018-12-29T13:18:47.855Z,102016.22
2018-12-29T13:21:16.642Z,102014.94
2018-12-29T13:23:47.304Z,102010.53
2018-12-29T13:26:20.670Z,102008.59
2018-12-29T13:28:51.107Z,102008.98
2018-12-29T13:31:19.705Z,102003.20
2018-12-29T13:33:48.345Z,102010.28
2018-12-29T13:36:16.963Z,102003.09
2018-12-29T13:38:45.634Z,102007.72
2018-12-29T13:41:14.417Z,102013.02
2018-12-29T13:43:46.514Z,102010.72
2018-12-29T13:46:24.283Z,102013.86
2018-12-29T13:48:52.968Z,102013.98
2018-12-29T13:51:21.653Z,102016.33
2018-12-29T13:53:50.445Z,102015.69
2018-12-29T13:56:19.229Z,102022.99
2018-12-29T13:58:48.019Z,102022.04
2018-12-29T14:01:16.806Z,102020.42
2018-12-29T14:03:45.594Z,102020.11
2018-12-29T14:06:14.384Z,102020.98
2018-12-29T14:08:43.274Z,102025.55
2018-12-29T14:11:12.062Z,102020.16
2018-12-29T14:13:40.953Z,102020.16
2018-12-29T14:16:09.637Z,102015.23
2018-12-29T14:18:38.327Z,102010.71
2018-12-29T14:21:07.522Z,102012.80
2018-12-29T14:23:36.309Z,102005.20
2018-12-29T14:26:04.994Z,102004.23
2018-12-29T14:28:33.692Z,102001.70
2018-12-29T14:31:02.283Z,101989.14
2018-12-29T14:33:31.361Z,101999.19
2018-12-29T14:36:00.053Z,101989.14
2018-12-29T14:38:28.837Z,101988.59
2018-12-29T14:40:57.620Z,101975.69
2018-12-29T14:43:26.411Z,101974.39
2018-12-29T14:45:55.302Z,101973.06
2018-12-29T14:48:24.089Z,101965.71
2018-12-29T14:50:52.774Z,101967.80
2018-12-29T14:53:21.564Z,101962.58
2018-12-29T14:55:50.350Z,101957.42
2018-12-29T14:58:19.138Z,101951.09
2018-12-29T15:00:47.926Z,101942.81
2018-12-29T15:03:20.366Z,101938.52
2018-12-29T15:05:49.190Z,101936.51
2018-12-29T15:08:17.984Z,101934.22
2018-12-29T15:10:46.663Z,101931.72
2018-12-29T15:13:15.652Z,101925.73
2018-12-29T15:15:44.349Z,101920.00
2018-12-29T15:18:13.336Z,101913.95
2018-12-29T15:20:48.472Z,101906.89
2018-12-29T15:23:17.362Z,101903.53
2018-12-29T15:25:46.047Z,101899.77
2018-12-29T15:28:14.745Z,101900.80
2018-12-29T15:30:43.802Z,101891.38
2018-12-29T15:33:12.516Z,101887.02
2018-12-29T15:35:41.098Z,101876.27
2018-12-29T15:38:10.099Z,101877.84
2018-12-29T15:40:38.688Z,101868.52
2018-12-29T15:43:07.295Z,101862.92
2018-12-29T15:45:36.366Z,101855.08
2018-12-29T15:48:05.004Z,101851.25
2018-12-29T15:50:34.916Z,101844.06
2018-12-29T15:53:04.068Z,101839.23
2018-12-29T15:55:32.660Z,101838.27
2018-12-29T15:58:01.633Z,101835.41
2018-12-29T16:00:30.239Z,101837.97
2018-12-29T16:02:58.843Z,101816.18
2018-12-29T16:05:27.469Z,101811.62
2018-12-29T16:07:56.553Z,101816.98
2018-12-29T16:10:25.258Z,101814.62
2018-12-29T16:12:54.047Z,101821.24
2018-12-29T16:15:23.243Z,101817.58
2018-12-29T16:17:52.145Z,101817.25
2018-12-29T16:20:20.921Z,101819.25
2018-12-29T16:22:49.942Z,101816.38
2018-12-29T16:25:18.540Z,101814.69
2018-12-29T16:27:47.230Z,101824.80
2018-12-29T16:30:15.904Z,101817.64
2018-12-29T16:32:44.925Z,101812.89
2018-12-29T16:35:13.532Z,101811.76
2018-12-29T16:37:42.174Z,101805.67
2018-12-29T16:40:10.768Z,101793.63
2018-12-29T16:42:39.606Z,101802.00
2018-12-29T16:45:08.375Z,101797.78
2018-12-29T16:47:37.009Z,101789.63
2018-12-29T16:50:07.919Z,101799.42
2018-12-29T16:52:36.602Z,101790.33
2018-12-29T16:55:06.006Z,101798.52
2018-12-29T16:57:34.795Z,101787.67
2018-12-29T17:00:04.897Z,101784.24
2018-12-29T17:02:33.598Z,101774.03
2018-12-29T17:05:02.504Z,101773.80
2018-12-29T17:07:31.105Z,101774.50
2018-12-29T17:09:59.714Z,101769.67
2018-12-29T17:12:28.328Z,101769.08
2018-12-29T17:14:56.907Z,101768.78
2018-12-29T17:17:25.536Z,101767.41
2018-12-29T17:19:54.118Z,101761.76
2018-12-29T17:22:22.872Z,101764.06
2018-12-29T17:24:51.440Z,101754.31
2018-12-29T17:27:20.101Z,101749.22
2018-12-29T17:29:48.864Z,101753.25
2018-12-29T17:32:17.529Z,101749.69
2018-12-29T17:34:46.117Z,101753.25
2018-12-29T17:37:14.750Z,101757.10
2018-12-29T17:39:43.495Z,101751.78
2018-12-29T17:42:12.154Z,101739.28
2018-12-29T17:44:40.753Z,101739.07
2018-12-29T17:47:09.428Z,101732.46
2018-12-29T17:49:38.216Z,101724.28
2018-12-29T17:52:07.211Z,101728.13
2018-12-29T17:54:35.902Z,101721.34
2018-12-29T17:57:04.683Z,101718.58
2018-12-29T17:59:35.374Z,101710.64
2018-12-29T18:02:04.077Z,101712.73
2018-12-29T18:04:32.981Z,101709.48
2018-12-29T18:07:01.678Z,101703.81
2018-12-29T18:09:30.770Z,101697.92
2018-12-29T18:11:59.542Z,101695.88
2018-12-29T18:14:28.201Z,101687.90
2018-12-29T18:16:56.875Z,101687.22
2018-12-29T18:19:30.557Z,101670.94
2018-12-29T18:21:55.842Z,101666.76
2018-12-29T18:24:24.649Z,101656.38
2018-12-29T18:26:53.418Z,101658.34
2018-12-29T18:29:22.104Z,101654.75
2018-12-29T18:31:51.198Z,101646.22
2018-12-29T18:34:19.990Z,101651.52
2018-12-29T18:36:48.775Z,101639.99
2018-12-29T18:39:17.564Z,101630.69
2018-12-29T18:41:46.349Z,101630.69
2018-12-29T18:44:15.139Z,101620.37
2018-12-29T18:46:43.819Z,101607.39
2018-12-29T18:49:12.498Z,101608.10
2018-12-29T18:51:41.069Z,101606.92
2018-12-29T18:54:09.722Z,101597.64
2018-12-29T18:56:45.361Z,101595.22
2018-12-29T18:59:08.731Z,101599.36
2018-12-29T19:01:37.309Z,101593.64
2018-12-29T19:04:06.003Z,101592.58
2018-12-29T19:06:34.595Z,101587.56
2018-12-29T19:09:05.116Z,101586.83
2018-12-29T19:11:34.089Z,101592.52
2018-12-29T19:14:03.077Z,101591.55
2018-12-29T19:16:31.676Z,101582.89
2018-12-29T19:19:00.366Z,101564.34
2018-12-29T19:21:28.994Z,101562.99
2018-12-29T19:23:58.191Z,101555.16
2018-12-29T19:26:27.312Z,101552.09
2018-12-29T19:28:56.461Z,101548.41
2018-12-29T19:31:25.038Z,101538.94
2018-12-29T19:33:53.649Z,101526.00
2018-12-29T19:36:22.233Z,101535.05
2018-12-29T19:38:51.032Z,101511.36
2018-12-29T19:41:20.280Z,101504.25
2018-12-29T19:43:49.416Z,101506.50
2018-12-29T19:46:18.383Z,101498.83
2018-12-29T19:48:46.993Z,101490.90
2018-12-29T19:51:15.584Z,101489.80
2018-12-29T19:53:44.460Z,101478.81
2018-12-29T19:56:13.038Z,101475.80
2018-12-29T19:58:41.764Z,101463.25
2018-12-29T20:01:10.336Z,101449.36
2018-12-29T20:03:39.159Z,101453.34
2018-12-29T20:06:12.266Z,101447.27
2018-12-29T20:08:38.173Z,101446.02
2018-12-29T20:11:06.775Z,101440.58
2018-12-29T20:13:35.529Z,101441.49
2018-12-29T20:16:04.116Z,101441.72
2018-12-29T20:18:32.745Z,101432.21
2018-12-29T20:21:01.734Z,101432.81
2018-12-29T20:23:30.372Z,101419.27
2018-12-29T20:25:58.938Z,101419.11
2018-12-29T20:28:27.598Z,101417.04
2018-12-29T20:30:56.205Z,101401.56
2018-12-29T20:33:25.013Z,101406.47
2018-12-29T20:35:53.692Z,101411.38
2018-12-29T20:38:22.333Z,101404.61
2018-12-29T20:40:50.935Z,101395.50
2018-12-29T20:43:19.535Z,101387.44
2018-12-29T20:45:48.121Z,101379.53
2018-12-29T20:48:17.027Z,101378.16
2018-12-29T20:50:45.995Z,101364.03
2018-12-29T20:53:14.579Z,101359.36
2018-12-29T20:55:43.185Z,101352.86
2018-12-29T20:58:11.850Z,101360.36
2018-12-29T21:00:40.734Z,101347.62
2018-12-29T21:03:09.369Z,101344.08
2018-12-29T21:05:37.942Z,101335.00
2018-12-29T21:08:06.567Z,101334.73
2018-12-29T21:10:35.160Z,101326.28
2018-12-29T21:13:03.774Z,101321.27
2018-12-29T21:15:32.364Z,101310.59
2018-12-29T21:18:01.033Z,101318.95
2018-12-29T21:20:29.650Z,101303.56
2018-12-29T21:22:58.407Z,101282.74
2018-12-29T21:25:26.982Z,101292.78
2018-12-29T21:27:55.812Z,101292.09
2018-12-29T21:30:24.390Z,101282.04
2018-12-29T21:32:53.038Z,101291.13
2018-12-29T21:35:21.615Z,101287.88
2018-12-29T21:37:50.297Z,101270.45
2018-12-29T21:40:18.869Z,101266.81
2018-12-29T21:42:47.546Z,101262.74
2018-12-29T21:45:16.136Z,101263.00
2018-12-29T21:47:44.778Z,101257.56
2018-12-29T21:50:13.436Z,101255.05
2018-12-29T21:52:42.059Z,101250.77
2018-12-29T21:55:11.060Z,101245.92
2018-12-29T21:57:39.791Z,101240.61
2018-12-29T22:00:09.747Z,101242.17
2018-12-29T22:02:38.400Z,101239.63
2018-12-29T22:05:07.046Z,101249.74
2018-12-29T22:07:35.785Z,101239.84
2018-12-29T22:10:06.001Z,101232.59
2018-12-29T22:12:34.622Z,101232.95
2018-12-29T22:15:03.198Z,101226.53
2018-12-29T22:17:32.284Z,101224.88
2018-12-29T22:20:00.981Z,101219.67
2018-12-29T22:22:30.236Z,101216.87
2018-12-29T22:24:59.022Z,101207.70
2018-12-29T22:27:28.055Z,101212.96
2018-12-29T22:29:58.357Z,101206.46
2018-12-29T22:32:45.940Z,101202.00
2018-12-29T22:35:14.668Z,101188.45
2018-12-29T22:37:43.491Z,101189.73
2018-12-29T22:40:13.329Z,101188.94
2018-12-29T22:42:41.935Z,101191.02
2018-12-29T22:45:10.825Z,101185.95
2018-12-29T22:47:39.502Z,101180.38
2018-12-29T22:50:08.869Z,101184.59
2018-12-29T22:52:37.468Z,101193.85
2018-12-29T22:55:06.124Z,101177.05
2018-12-29T22:57:35.174Z,101175.16
2018-12-29T23:00:04.378Z,101175.05
2018-12-29T23:02:33.227Z,101172.63
2018-12-29T23:05:01.866Z,101163.72
2018-12-29T23:07:30.472Z,101154.09
2018-12-29T23:09:59.085Z,101159.84
2018-12-29T23:12:27.690Z,101157.64
2018-12-29T23:14:56.858Z,101157.34
2018-12-29T23:17:25.572Z,101153.50
2018-12-29T23:19:54.290Z,101160.06
2018-12-29T23:22:23.383Z,101158.41
2018-12-29T23:24:51.956Z,101154.65
2018-12-29T23:27:20.584Z,101151.55
2018-12-29T23:29:49.153Z,101152.20
2018-12-29T23:32:17.789Z,101152.96
2018-12-29T23:34:46.383Z,101150.16
2018-12-29T23:37:15.015Z,101142.93
2018-12-29T23:39:43.609Z,101150.61
2018-12-29T23:42:12.226Z,101147.77
2018-12-29T23:44:40.795Z,101144.48
2018-12-29T23:47:09.408Z,101137.69
2018-12-29T23:49:38.011Z,101138.89
2018-12-29T23:52:06.702Z,101137.95
2018-12-29T23:54:35.293Z,101133.94
2018-12-29T23:57:03.990Z,101137.24
2018-12-29T23:59:32.578Z,101132.92
